sensor_id;sensor_type;location;lat;lon;timestamp;pressure;altitude;pressure_sealevel;temperature;humidity
58598;BME280;64549;46.910;16.844;2022-11-20T06:03:40;99200.66;;;2.78;100.00
58598;BME280;64549;46.910;16.844;2022-11-20T06:08:41;99193.28;;;2.57;100.00
58598;BME280;64549;46.910;16.844;2022-11-20T06:13:41;99194.31;;;2.27;100.00
58598;BME280;64549;46.910;16.844;2022-11-20T06:18:42;99200.75;;;2.36;100.00
58598;BME280;64549;46.910;16.844;2022-11-20T06:23:43;99200.28;;;2.56;100.00
58598;BME280;64549;46.910;16.844;2022-11-20T06:28:44;99200.03;;;2.74;100.00
58598;BME280;64549;46.910;16.844;2022-11-20T06:33:45;99208.81;;;2.88;100.00
58598;BME280;64549;46.910;16.844;2022-11-20T06:38:46;99205.34;;;3.00;100.00
58598;BME280;64549;46.910;16.844;2022-11-20T06:43:49;99210.06;;;3.08;100.00
58598;BME280;64549;46.910;16.844;2022-11-20T06:48:50;99210.28;;;3.18;100.00
58598;BME280;64549;46.910;16.844;2022-11-20T06:53:50;99207.25;;;3.24;100.00
58598;BME280;64549;46.910;16.844;2022-11-20T06:58:51;99219.25;;;3.28;100.00
58598;BME280;64549;46.910;16.844;2022-11-20T07:03:52;99221.56;;;3.33;100.00
58598;BME280;64549;46.910;16.844;2022-11-20T07:08:52;99235.22;;;3.38;100.00
58598;BME280;64549;46.910;16.844;2022-11-20T07:13:52;99230.28;;;3.46;100.00
58598;BME280;64549;46.910;16.844;2022-11-20T07:18:53;99219.88;;;3.45;100.00
58598;BME280;64549;46.910;16.844;2022-11-20T07:23:53;99232.59;;;3.38;100.00
58598;BME280;64549;46.910;16.844;2022-11-20T07:28:54;99243.44;;;3.59;100.00
58598;BME280;64549;46.910;16.844;2022-11-20T07:33:54;99238.41;;;3.30;100.00
58598;BME280;64549;46.910;16.844;2022-11-20T07:38:54;99247.66;;;3.36;100.00
58598;BME280;64549;46.910;16.844;2022-11-20T07:43:55;99249.72;;;3.31;100.00
58598;BME280;64549;46.910;16.844;2022-11-20T07:48:55;99238.78;;;3.11;100.00
58598;BME280;64549;46.910;16.844;2022-11-20T07:53:56;99241.22;;;3.27;100.00
58598;BME280;64549;46.910;16.844;2022-11-20T07:58:56;99245.34;;;3.44;100.00
58598;BME280;64549;46.910;16.844;2022-11-20T08:03:57;99229.94;;;3.90;100.00
58598;BME280;64549;46.910;16.844;2022-11-20T08:08:57;99221.16;;;4.03;100.00
58598;BME280;64549;46.910;16.844;2022-11-20T08:13:58;99234.66;;;3.98;100.00
58598;BME280;64549;46.910;16.844;2022-11-20T08:19:16;99236.16;;;4.27;100.00
58598;BME280;64549;46.910;16.844;2022-11-20T08:24:17;99242.94;;;4.42;100.00
58598;BME280;64549;46.910;16.844;2022-11-20T08:29:18;99265.53;;;4.20;100.00
58598;BME280;64549;46.910;16.844;2022-11-20T08:34:18;99274.28;;;4.21;100.00
58598;BME280;64549;46.910;16.844;2022-11-20T08:39:19;99257.81;;;3.93;100.00
58598;BME280;64549;46.910;16.844;2022-11-20T08:44:19;99260.16;;;3.84;100.00
58598;BME280;64549;46.910;16.844;2022-11-20T08:49:20;99281.81;;;3.75;100.00
58598;BME280;64549;46.910;16.844;2022-11-20T08:54:21;99288.75;;;3.37;100.00
58598;BME280;64549;46.910;16.844;2022-11-20T08:59:23;99290.72;;;3.07;100.00
58598;BME280;64549;46.910;16.844;2022-11-20T09:04:23;99291.13;;;3.14;100.00
58598;BME280;64549;46.910;16.844;2022-11-20T09:09:24;99290.31;;;3.27;100.00
58598;BME280;64549;46.910;16.844;2022-11-20T09:14:24;99279.50;;;3.70;100.00
58598;BME280;64549;46.910;16.844;2022-11-20T09:19:29;99293.81;;;3.79;100.00
58598;BME280;64549;46.910;16.844;2022-11-20T09:24:29;99299.28;;;3.89;100.00
58598;BME280;64549;46.910;16.844;2022-11-20T09:29:30;99301.81;;;4.54;100.00
58598;BME280;64549;46.910;16.844;2022-11-20T09:34:30;99293.13;;;4.90;100.00
58598;BME280;64549;46.910;16.844;2022-11-20T09:39:31;99280.75;;;5.14;100.00
58598;BME280;64549;46.910;16.844;2022-11-20T09:50:28;99297.25;;;5.41;100.00
58598;BME280;64549;46.910;16.844;2022-11-20T09:55:27;99294.50;;;4.82;100.00
58598;BME280;64549;46.910;16.844;2022-11-20T10:00:29;99297.31;;;4.92;100.00
58598;BME280;64549;46.910;16.844;2022-11-20T10:05:41;99298.72;;;4.23;100.00
58598;BME280;64549;46.910;16.844;2022-11-20T10:11:34;99286.56;;;3.96;100.00
58598;BME280;64549;46.910;16.844;2022-11-20T10:16:27;99291.75;;;4.22;100.00
58598;BME280;64549;46.910;16.844;2022-11-20T10:32:18;99283.53;;;4.88;100.00
58598;BME280;64549;46.910;16.844;2022-11-20T10:37:22;99274.56;;;4.91;100.00
58598;BME280;64549;46.910;16.844;2022-11-20T10:42:31;99263.22;;;5.61;100.00
58598;BME280;64549;46.910;16.844;2022-11-20T10:47:34;99267.44;;;5.86;100.00
58598;BME280;64549;46.910;16.844;2022-11-20T10:53:31;99250.88;;;6.30;100.00
58598;BME280;64549;46.910;16.844;2022-11-20T10:58:45;99264.28;;;6.83;100.00
58598;BME280;64549;46.910;16.844;2022-11-20T11:03:50;99272.19;;;7.15;100.00
58598;BME280;64549;46.910;16.844;2022-11-20T11:08:53;99256.06;;;7.18;100.00
58598;BME280;64549;46.910;16.844;2022-11-20T11:14:09;99256.06;;;7.40;100.00
58598;BME280;64549;46.910;16.844;2022-11-20T11:19:13;99265.63;;;7.31;100.00
58598;BME280;64549;46.910;16.844;2022-11-20T11:24:43;99262.47;;;7.58;100.00
58598;BME280;64549;46.910;16.844;2022-11-20T11:30:01;99257.88;;;7.61;100.00
58598;BME280;64549;46.910;16.844;2022-11-20T11:35:04;99257.38;;;7.77;100.00
58598;BME280;64549;46.910;16.844;2022-11-20T11:40:05;99238.38;;;7.62;100.00
58598;BME280;64549;46.910;16.844;2022-11-20T11:45:11;99227.78;;;7.93;100.00
58598;BME280;64549;46.910;16.844;2022-11-20T11:55:28;99232.09;;;7.63;100.00
58598;BME280;64549;46.910;16.844;2022-11-20T12:00:31;99228.81;;;7.39;100.00
58598;BME280;64549;46.910;16.844;2022-11-20T12:05:38;99221.31;;;7.44;100.00
58598;BME280;64549;46.910;16.844;2022-11-20T12:11:12;99217.06;;;6.89;100.00
58598;BME280;64549;46.910;16.844;2022-11-20T12:16:17;99205.06;;;7.28;100.00
58598;BME280;64549;46.910;16.844;2022-11-20T12:21:45;99208.00;;;7.56;100.00
58598;BME280;64549;46.910;16.844;2022-11-20T12:32:06;99207.13;;;7.55;100.00
58598;BME280;64549;46.910;16.844;2022-11-20T12:59:11;99197.22;;;7.48;100.00
58598;BME280;64549;46.910;16.844;2022-11-20T13:09:40;99176.28;;;7.66;100.00
58598;BME280;64549;46.910;16.844;2022-11-20T13:19:53;99174.69;;;7.53;100.00
58598;BME280;64549;46.910;16.844;2022-11-20T13:24:54;99182.84;;;7.71;100.00
58598;BME280;64549;46.910;16.844;2022-11-20T13:30:48;99188.00;;;7.73;100.00
58598;BME280;64549;46.910;16.844;2022-11-20T13:40:37;99187.88;;;7.75;100.00
58598;BME280;64549;46.910;16.844;2022-11-20T13:45:38;99183.31;;;7.55;100.00
58598;BME280;64549;46.910;16.844;2022-11-20T14:01:23;99184.16;;;7.25;100.00
58598;BME280;64549;46.910;16.844;2022-11-20T14:06:32;99180.38;;;7.17;100.00
58598;BME280;64549;46.910;16.844;2022-11-20T14:11:33;99183.69;;;7.19;100.00
58598;BME280;64549;46.910;16.844;2022-11-20T14:16:35;99178.19;;;7.32;100.00
58598;BME280;64549;46.910;16.844;2022-11-20T14:21:36;99175.47;;;7.13;100.00
58598;BME280;64549;46.910;16.844;2022-11-20T14:26:38;99180.13;;;6.99;100.00
58598;BME280;64549;46.910;16.844;2022-11-20T14:31:42;99173.00;;;6.78;100.00
58598;BME280;64549;46.910;16.844;2022-11-20T14:36:43;99184.53;;;6.56;100.00
58598;BME280;64549;46.910;16.844;2022-11-20T14:41:51;99179.06;;;6.36;100.00
58598;BME280;64549;46.910;16.844;2022-11-20T14:46:55;99183.31;;;6.16;100.00
58598;BME280;64549;46.910;16.844;2022-11-20T14:52:19;99178.41;;;6.00;100.00
58598;BME280;64549;46.910;16.844;2022-11-20T14:57:40;99167.38;;;5.83;100.00
58598;BME280;64549;46.910;16.844;2022-11-20T15:02:42;99180.84;;;5.69;100.00
58598;BME280;64549;46.910;16.844;2022-11-20T15:07:46;99181.56;;;5.48;100.00
58598;BME280;64549;46.910;16.844;2022-11-20T15:12:53;99185.16;;;5.35;100.00
58598;BME280;64549;46.910;16.844;2022-11-20T15:17:55;99174.94;;;5.19;100.00
58598;BME280;64549;46.910;16.844;2022-11-20T15:22:55;99181.16;;;5.07;100.00
58598;BME280;64549;46.910;16.844;2022-11-20T15:27:56;99185.34;;;4.98;100.00
58598;BME280;64549;46.910;16.844;2022-11-20T15:32:57;99179.19;;;4.86;100.00
58598;BME280;64549;46.910;16.844;2022-11-20T15:37:57;99186.72;;;4.79;100.00
58598;BME280;64549;46.910;16.844;2022-11-20T15:42:58;99197.13;;;4.81;100.00
58598;BME280;64549;46.910;16.844;2022-11-20T15:48:12;99199.56;;;4.84;100.00
58598;BME280;64549;46.910;16.844;2022-11-20T15:53:14;99194.06;;;4.87;100.00
58598;BME280;64549;46.910;16.844;2022-11-20T15:58:14;99194.09;;;4.98;100.00
58598;BME280;64549;46.910;16.844;2022-11-20T16:03:17;99195.06;;;5.09;100.00
58598;BME280;64549;46.910;16.844;2022-11-20T16:08:18;99192.94;;;5.14;100.00
58598;BME280;64549;46.910;16.844;2022-11-20T16:13:24;99189.69;;;5.22;100.00
58598;BME280;64549;46.910;16.844;2022-11-20T16:18:44;99190.03;;;5.29;100.00
58598;BME280;64549;46.910;16.844;2022-11-20T16:23:44;99195.94;;;5.32;100.00
58598;BME280;64549;46.910;16.844;2022-11-20T16:28:45;99204.19;;;5.27;100.00
58598;BME280;64549;46.910;16.844;2022-11-20T16:33:52;99204.69;;;5.33;100.00
58598;BME280;64549;46.910;16.844;2022-11-20T16:38:54;99200.59;;;5.40;100.00
58598;BME280;64549;46.910;16.844;2022-11-20T16:43:57;99200.38;;;5.43;100.00
58598;BME280;64549;46.910;16.844;2022-11-20T16:49:11;99191.38;;;5.46;100.00
58598;BME280;64549;46.910;16.844;2022-11-20T16:54:12;99185.06;;;5.48;100.00
58598;BME280;64549;46.910;16.844;2022-11-20T16:59:12;99186.84;;;5.36;100.00
58598;BME280;64549;46.910;16.844;2022-11-20T17:04:13;99180.72;;;5.36;100.00
58598;BME280;64549;46.910;16.844;2022-11-20T17:09:13;99186.94;;;5.35;100.00
58598;BME280;64549;46.910;16.844;2022-11-20T17:14:14;99181.69;;;5.35;100.00
58598;BME280;64549;46.910;16.844;2022-11-20T17:19:15;99158.66;;;5.25;100.00
58598;BME280;64549;46.910;16.844;2022-11-20T17:24:15;99148.00;;;5.27;100.00
58598;BME280;64549;46.910;16.844;2022-11-20T17:29:17;99136.38;;;5.30;100.00
58598;BME280;64549;46.910;16.844;2022-11-20T17:34:20;99132.53;;;5.34;100.00
58598;BME280;64549;46.910;16.844;2022-11-20T17:39:21;99124.13;;;5.29;100.00
58598;BME280;64549;46.910;16.844;2022-11-20T17:44:21;99113.47;;;5.30;100.00
58598;BME280;64549;46.910;16.844;2022-11-20T17:49:22;99106.63;;;5.16;100.00
58598;BME280;64549;46.910;16.844;2022-11-20T17:54:22;99103.28;;;5.25;100.00
58598;BME280;64549;46.910;16.844;2022-11-20T17:59:23;99115.16;;;5.08;100.00
58598;BME280;64549;46.910;16.844;2022-11-20T18:04:23;99124.50;;;5.12;100.00
58598;BME280;64549;46.910;16.844;2022-11-20T18:09:27;99127.34;;;4.86;100.00
58598;BME280;64549;46.910;16.844;2022-11-20T18:14:27;99141.41;;;5.10;100.00
58598;BME280;64549;46.910;16.844;2022-11-20T18:19:40;99136.59;;;5.15;100.00
58598;BME280;64549;46.910;16.844;2022-11-20T18:24:41;99146.78;;;5.08;100.00
58598;BME280;64549;46.910;16.844;2022-11-20T18:29:45;99148.94;;;5.14;100.00
58598;BME280;64549;46.910;16.844;2022-11-20T18:34:47;99154.56;;;5.10;100.00
58598;BME280;64549;46.910;16.844;2022-11-20T18:39:48;99171.31;;;5.09;100.00
58598;BME280;64549;46.910;16.844;2022-11-20T18:44:49;99158.75;;;5.01;100.00
58598;BME280;64549;46.910;16.844;2022-11-20T18:49:52;99156.81;;;5.03;100.00
58598;BME280;64549;46.910;16.844;2022-11-20T18:54:53;99141.38;;;4.98;100.00
58598;BME280;64549;46.910;16.844;2022-11-20T18:59:55;99141.84;;;5.04;100.00
58598;BME280;64549;46.910;16.844;2022-11-20T19:04:58;99145.81;;;4.98;100.00
58598;BME280;64549;46.910;16.844;2022-11-20T19:09:59;99141.09;;;4.90;100.00
58598;BME280;64549;46.910;16.844;2022-11-20T19:14:59;99151.28;;;4.83;100.00
58598;BME280;64549;46.910;16.844;2022-11-20T19:20:00;99158.44;;;4.70;100.00
58598;BME280;64549;46.910;16.844;2022-11-20T19:25:00;99154.41;;;4.88;100.00
58598;BME280;64549;46.910;16.844;2022-11-20T19:30:01;99162.28;;;4.77;100.00
58598;BME280;64549;46.910;16.844;2022-11-20T19:35:02;99161.09;;;4.81;100.00
58598;BME280;64549;46.910;16.844;2022-11-20T19:40:03;99160.97;;;4.71;100.00
58598;BME280;64549;46.910;16.844;2022-11-20T19:45:04;99160.25;;;4.81;100.00
58598;BME280;64549;46.910;16.844;2022-11-20T19:50:06;99161.25;;;4.91;100.00
58598;BME280;64549;46.910;16.844;2022-11-20T19:55:07;99187.34;;;4.83;100.00
58598;BME280;64549;46.910;16.844;2022-11-20T20:00:08;99182.38;;;4.67;100.00
58598;BME280;64549;46.910;16.844;2022-11-20T20:05:08;99171.91;;;4.90;100.00
58598;BME280;64549;46.910;16.844;2022-11-20T20:10:09;99173.34;;;4.94;100.00
58598;BME280;64549;46.910;16.844;2022-11-20T20:15:09;99173.34;;;4.94;100.00
58598;BME280;64549;46.910;16.844;2022-11-20T20:20:10;99160.63;;;4.87;100.00
58598;BME280;64549;46.910;16.844;2022-11-20T20:25:11;99154.28;;;4.90;100.00
58598;BME280;64549;46.910;16.844;2022-11-20T20:30:11;99151.53;;;4.92;100.00
58598;BME280;64549;46.910;16.844;2022-11-20T20:35:12;99145.22;;;4.94;100.00
58598;BME280;64549;46.910;16.844;2022-11-20T20:40:12;99133.50;;;4.62;100.00
58598;BME280;64549;46.910;16.844;2022-11-20T20:45:13;99120.47;;;4.72;100.00
58598;BME280;64549;46.910;16.844;2022-11-20T20:50:13;99129.50;;;4.45;100.00
58598;BME280;64549;46.910;16.844;2022-11-20T20:55:14;99131.69;;;4.63;100.00
58598;BME280;64549;46.910;16.844;2022-11-20T21:00:15;99120.78;;;4.56;100.00
58598;BME280;64549;46.910;16.844;2022-11-20T21:05:15;99123.69;;;4.65;100.00
58598;BME280;64549;46.910;16.844;2022-11-20T21:10:16;99125.81;;;4.59;100.00
58598;BME280;64549;46.910;16.844;2022-11-20T21:15:16;99106.16;;;4.52;100.00
58598;BME280;64549;46.910;16.844;2022-11-20T21:20:17;99098.53;;;4.60;100.00
58598;BME280;64549;46.910;16.844;2022-11-20T21:25:37;99101.53;;;4.56;100.00
58598;BME280;64549;46.910;16.844;2022-11-20T21:30:37;99096.75;;;4.61;100.00
58598;BME280;64549;46.910;16.844;2022-11-20T21:35:38;99096.66;;;4.74;100.00
58598;BME280;64549;46.910;16.844;2022-11-20T21:40:38;99098.19;;;4.65;100.00
58598;BME280;64549;46.910;16.844;2022-11-20T21:45:39;99102.69;;;4.52;100.00
58598;BME280;64549;46.910;16.844;2022-11-20T21:50:39;99095.88;;;4.60;100.00
58598;BME280;64549;46.910;16.844;2022-11-20T21:55:39;99101.28;;;4.59;100.00
58598;BME280;64549;46.910;16.844;2022-11-20T22:00:40;99100.47;;;4.70;100.00
58598;BME280;64549;46.910;16.844;2022-11-20T22:05:40;99102.03;;;4.72;100.00
58598;BME280;64549;46.910;16.844;2022-11-20T22:10:41;99106.53;;;4.59;100.00
58598;BME280;64549;46.910;16.844;2022-11-20T22:15:44;99106.47;;;4.72;100.00
58598;BME280;64549;46.910;16.844;2022-11-20T22:20:45;99099.59;;;4.58;100.00
58598;BME280;64549;46.910;16.844;2022-11-20T22:25:45;99098.63;;;4.59;100.00
58598;BME280;64549;46.910;16.844;2022-11-20T22:30:46;99093.63;;;4.56;100.00
58598;BME280;64549;46.910;16.844;2022-11-20T22:35:46;99080.16;;;4.47;100.00
58598;BME280;64549;46.910;16.844;2022-11-20T22:40:46;99076.00;;;4.56;100.00
58598;BME280;64549;46.910;16.844;2022-11-20T22:45:47;99081.19;;;4.69;100.00
58598;BME280;64549;46.910;16.844;2022-11-20T22:50:48;99094.09;;;4.61;100.00
58598;BME280;64549;46.910;16.844;2022-11-20T22:55:48;99092.69;;;4.68;100.00
58598;BME280;64549;46.910;16.844;2022-11-20T23:00:49;99088.75;;;4.74;100.00
58598;BME280;64549;46.910;16.844;2022-11-20T23:05:50;99090.41;;;4.75;100.00
58598;BME280;64549;46.910;16.844;2022-11-20T23:11:01;99066.13;;;4.71;100.00
58598;BME280;64549;46.910;16.844;2022-11-20T23:16:03;99052.00;;;4.72;100.00
58598;BME280;64549;46.910;16.844;2022-11-20T23:21:09;99059.16;;;4.82;100.00
58598;BME280;64549;46.910;16.844;2022-11-20T23:26:12;99069.59;;;4.83;100.00
58598;BME280;64549;46.910;16.844;2022-11-20T23:31:14;99051.66;;;4.88;100.00
58598;BME280;64549;46.910;16.844;2022-11-20T23:36:15;99047.81;;;4.93;100.00
58598;BME280;64549;46.910;16.844;2022-11-20T23:41:16;99052.81;;;4.84;100.00
58598;BME280;64549;46.910;16.844;2022-11-20T23:46:17;99046.13;;;4.92;100.00
58598;BME280;64549;46.910;16.844;2022-11-20T23:51:17;99037.75;;;4.86;100.00
58598;BME280;64549;46.910;16.844;2022-11-20T23:56:18;99038.72;;;4.85;100.00
